sensor_id;sensor_type;location;lat;lon;timestamp;pressure;altitude;pressure_sealevel;temperature;humidity
34983;BME280;21187;50.976;13.720;2023-09-19T00:04:57;97537.13;;;20.46;54.64
34983;BME280;21187;50.976;13.720;2023-09-19T00:09:58;97533.06;;;20.51;54.54
34983;BME280;21187;50.976;13.720;2023-09-19T00:15:00;97529.47;;;20.54;54.56
34983;BME280;21187;50.976;13.720;2023-09-19T00:20:03;97524.28;;;20.56;54.64
34983;BME280;21187;50.976;13.720;2023-09-19T00:25:14;97526.72;;;20.54;54.99
34983;BME280;21187;50.976;13.720;2023-09-19T00:30:17;97515.72;;;20.54;55.04
34983;BME280;21187;50.976;13.720;2023-09-19T00:35:23;97520.78;;;20.55;55.04
34983;BME280;21187;50.976;13.720;2023-09-19T00:40:29;97510.22;;;20.54;55.29
34983;BME280;21187;50.976;13.720;2023-09-19T00:45:31;97509.34;;;20.57;55.24
34983;BME280;21187;50.976;13.720;2023-09-19T00:50:35;97500.47;;;20.66;55.25
34983;BME280;21187;50.976;13.720;2023-09-19T00:55:37;97511.56;;;20.78;54.78
34983;BME280;21187;50.976;13.720;2023-09-19T01:00:40;97509.28;;;20.90;54.61
34983;BME280;21187;50.976;13.720;2023-09-19T01:05:42;97514.59;;;20.97;54.49
34983;BME280;21187;50.976;13.720;2023-09-19T01:16:35;97516.78;;;21.02;54.48
34983;BME280;21187;50.976;13.720;2023-09-19T01:21:51;97532.09;;;21.03;54.32
34983;BME280;21187;50.976;13.720;2023-09-19T01:32:04;97519.91;;;21.04;54.51
34983;BME280;21187;50.976;13.720;2023-09-19T01:37:06;97546.22;;;21.05;54.27
34983;BME280;21187;50.976;13.720;2023-09-19T01:42:35;97526.06;;;21.08;54.29
34983;BME280;21187;50.976;13.720;2023-09-19T01:47:51;97512.66;;;21.10;53.92
34983;BME280;21187;50.976;13.720;2023-09-19T01:53:24;97519.81;;;21.08;53.89
34983;BME280;21187;50.976;13.720;2023-09-19T01:58:34;97524.50;;;21.07;54.10
34983;BME280;21187;50.976;13.720;2023-09-19T02:03:41;97545.88;;;21.03;54.09
34983;BME280;21187;50.976;13.720;2023-09-19T02:08:44;97546.84;;;20.97;54.19
34983;BME280;21187;50.976;13.720;2023-09-19T02:13:50;97550.91;;;20.92;54.17
34983;BME280;21187;50.976;13.720;2023-09-19T02:18:56;97558.16;;;20.86;54.09
34983;BME280;21187;50.976;13.720;2023-09-19T02:23:58;97552.28;;;20.84;54.07
34983;BME280;21187;50.976;13.720;2023-09-19T02:29:00;97558.16;;;20.86;54.09
34983;BME280;21187;50.976;13.720;2023-09-19T02:34:03;97560.47;;;20.87;53.84
34983;BME280;21187;50.976;13.720;2023-09-19T02:39:05;97562.09;;;20.85;54.00
34983;BME280;21187;50.976;13.720;2023-09-19T02:44:08;97560.97;;;20.82;53.97
34983;BME280;21187;50.976;13.720;2023-09-19T02:49:10;97574.84;;;20.78;53.74
34983;BME280;21187;50.976;13.720;2023-09-19T02:54:12;97565.81;;;20.78;53.86
34983;BME280;21187;50.976;13.720;2023-09-19T02:59:14;97570.19;;;20.75;53.67
34983;BME280;21187;50.976;13.720;2023-09-19T03:04:16;97576.59;;;20.72;53.84
34983;BME280;21187;50.976;13.720;2023-09-19T03:09:22;97583.72;;;20.70;53.75
34983;BME280;21187;50.976;13.720;2023-09-19T03:14:25;97582.13;;;20.69;53.88
34983;BME280;21187;50.976;13.720;2023-09-19T03:19:27;97593.22;;;20.65;53.90
34983;BME280;21187;50.976;13.720;2023-09-19T03:24:31;97590.81;;;20.67;53.82
34983;BME280;21187;50.976;13.720;2023-09-19T03:29:36;97602.78;;;20.60;54.16
34983;BME280;21187;50.976;13.720;2023-09-19T03:34:39;97598.25;;;20.54;54.43
34983;BME280;21187;50.976;13.720;2023-09-19T03:39:47;97606.56;;;20.50;54.28
34983;BME280;21187;50.976;13.720;2023-09-19T03:44:49;97612.84;;;20.51;54.43
34983;BME280;21187;50.976;13.720;2023-09-19T03:49:51;97608.44;;;20.53;54.40
34983;BME280;21187;50.976;13.720;2023-09-19T03:54:53;97602.19;;;20.53;54.24
34983;BME280;21187;50.976;13.720;2023-09-19T03:59:56;97603.91;;;20.47;54.63
34983;BME280;21187;50.976;13.720;2023-09-19T04:04:58;97604.41;;;20.41;54.66
34983;BME280;21187;50.976;13.720;2023-09-19T04:09:59;97619.78;;;20.39;54.82
34983;BME280;21187;50.976;13.720;2023-09-19T04:15:02;97622.97;;;20.37;54.95
34983;BME280;21187;50.976;13.720;2023-09-19T04:20:04;97640.34;;;20.34;54.91
34983;BME280;21187;50.976;13.720;2023-09-19T04:25:08;97628.66;;;20.30;54.96
34983;BME280;21187;50.976;13.720;2023-09-19T04:30:10;97642.91;;;20.25;55.17
34983;BME280;21187;50.976;13.720;2023-09-19T04:35:13;97641.03;;;20.22;55.28
34983;BME280;21187;50.976;13.720;2023-09-19T04:40:16;97655.53;;;20.22;55.32
34983;BME280;21187;50.976;13.720;2023-09-19T04:45:21;97650.13;;;20.19;55.37
34983;BME280;21187;50.976;13.720;2023-09-19T04:50:23;97652.88;;;20.19;55.38
34983;BME280;21187;50.976;13.720;2023-09-19T04:55:28;97648.47;;;20.21;55.28
34983;BME280;21187;50.976;13.720;2023-09-19T05:00:32;97663.44;;;20.20;55.27
34983;BME280;21187;50.976;13.720;2023-09-19T05:05:36;97668.25;;;20.16;55.21
34983;BME280;21187;50.976;13.720;2023-09-19T05:10:40;97674.66;;;20.09;55.54
34983;BME280;21187;50.976;13.720;2023-09-19T05:15:42;97676.66;;;20.09;55.51
34983;BME280;21187;50.976;13.720;2023-09-19T05:20:44;97677.91;;;20.04;55.55
34983;BME280;21187;50.976;13.720;2023-09-19T05:25:46;97684.09;;;20.08;55.41
34983;BME280;21187;50.976;13.720;2023-09-19T05:30:48;97697.34;;;20.14;55.12
34983;BME280;21187;50.976;13.720;2023-09-19T05:35:50;97700.47;;;20.16;54.99
34983;BME280;21187;50.976;13.720;2023-09-19T05:40:52;97716.47;;;20.21;54.86
34983;BME280;21187;50.976;13.720;2023-09-19T05:45:54;97717.66;;;20.20;54.75
34983;BME280;21187;50.976;13.720;2023-09-19T05:50:58;97716.47;;;20.21;54.86
34983;BME280;21187;50.976;13.720;2023-09-19T05:56:00;97710.53;;;20.22;54.83
34983;BME280;21187;50.976;13.720;2023-09-19T06:01:02;97718.34;;;20.24;54.67
34983;BME280;21187;50.976;13.720;2023-09-19T06:06:05;97712.34;;;20.29;54.56
34983;BME280;21187;50.976;13.720;2023-09-19T06:11:07;97719.72;;;20.32;54.69
34983;BME280;21187;50.976;13.720;2023-09-19T06:16:10;97728.69;;;20.36;54.50
34983;BME280;21187;50.976;13.720;2023-09-19T06:21:12;97721.22;;;20.37;54.65
34983;BME280;21187;50.976;13.720;2023-09-19T06:26:14;97727.41;;;20.41;54.53
34983;BME280;21187;50.976;13.720;2023-09-19T06:31:16;97736.63;;;20.51;54.26
34983;BME280;21187;50.976;13.720;2023-09-19T06:36:18;97751.59;;;20.66;53.89
34983;BME280;21187;50.976;13.720;2023-09-19T06:41:21;97757.31;;;20.75;53.86
34983;BME280;21187;50.976;13.720;2023-09-19T06:46:26;97779.50;;;20.85;53.49
34983;BME280;21187;50.976;13.720;2023-09-19T06:51:34;97777.81;;;21.07;53.11
34983;BME280;21187;50.976;13.720;2023-09-19T06:56:36;97793.13;;;21.25;52.93
34983;BME280;21187;50.976;13.720;2023-09-19T07:01:38;97804.72;;;21.49;52.42
34983;BME280;21187;50.976;13.720;2023-09-19T07:06:41;97819.13;;;21.57;51.75
34983;BME280;21187;50.976;13.720;2023-09-19T07:11:43;97807.06;;;21.51;51.27
34983;BME280;21187;50.976;13.720;2023-09-19T07:16:46;97820.81;;;21.51;50.50
34983;BME280;21187;50.976;13.720;2023-09-19T07:21:49;97831.41;;;21.52;50.05
34983;BME280;21187;50.976;13.720;2023-09-19T07:26:52;97843.41;;;21.62;50.21
34983;BME280;21187;50.976;13.720;2023-09-19T07:31:54;97842.72;;;21.58;49.94
34983;BME280;21187;50.976;13.720;2023-09-19T07:36:56;97845.13;;;21.56;49.92
34983;BME280;21187;50.976;13.720;2023-09-19T07:41:58;97849.25;;;21.64;49.81
34983;BME280;21187;50.976;13.720;2023-09-19T07:47:00;97861.50;;;21.63;49.10
34983;BME280;21187;50.976;13.720;2023-09-19T07:52:05;97871.47;;;21.73;48.70
34983;BME280;21187;50.976;13.720;2023-09-19T07:57:07;97867.25;;;22.15;48.52
34983;BME280;21187;50.976;13.720;2023-09-19T08:02:08;97874.97;;;22.36;47.59
34983;BME280;21187;50.976;13.720;2023-09-19T08:07:17;97879.06;;;22.44;47.65
34983;BME280;21187;50.976;13.720;2023-09-19T08:12:20;97874.97;;;22.79;47.13
34983;BME280;21187;50.976;13.720;2023-09-19T08:17:26;97875.84;;;23.01;46.84
34983;BME280;21187;50.976;13.720;2023-09-19T08:22:28;97871.59;;;23.39;46.42
34983;BME280;21187;50.976;13.720;2023-09-19T08:27:30;97863.13;;;23.68;45.58
34983;BME280;21187;50.976;13.720;2023-09-19T08:32:32;97863.84;;;23.82;45.20
34983;BME280;21187;50.976;13.720;2023-09-19T08:37:34;97866.81;;;23.87;44.73
34983;BME280;21187;50.976;13.720;2023-09-19T08:42:56;97872.31;;;24.13;43.75
34983;BME280;21187;50.976;13.720;2023-09-19T08:59:00;97883.75;;;23.41;43.75
34983;BME280;21187;50.976;13.720;2023-09-19T09:04:09;97885.50;;;23.35;43.21
34983;BME280;21187;50.976;13.720;2023-09-19T09:09:15;97891.97;;;23.67;43.61
34983;BME280;21187;50.976;13.720;2023-09-19T09:14:18;97881.69;;;24.16;43.13
34983;BME280;21187;50.976;13.720;2023-09-19T09:19:21;97881.84;;;24.34;42.05
34983;BME280;21187;50.976;13.720;2023-09-19T09:24:30;97879.13;;;24.43;41.44
34983;BME280;21187;50.976;13.720;2023-09-19T09:29:48;97890.59;;;24.55;41.66
34983;BME280;21187;50.976;13.720;2023-09-19T09:34:55;97890.22;;;24.43;40.91
34983;BME280;21187;50.976;13.720;2023-09-19T09:40:02;97899.63;;;24.11;41.42
34983;BME280;21187;50.976;13.720;2023-09-19T09:45:27;97910.56;;;23.80;41.58
34983;BME280;21187;50.976;13.720;2023-09-19T09:50:36;97906.59;;;23.55;42.02
34983;BME280;21187;50.976;13.720;2023-09-19T09:56:03;97902.72;;;23.65;42.44
34983;BME280;21187;50.976;13.720;2023-09-19T10:01:08;97922.19;;;23.62;42.42
34983;BME280;21187;50.976;13.720;2023-09-19T10:06:13;97910.94;;;23.56;42.69
34983;BME280;21187;50.976;13.720;2023-09-19T10:11:24;97908.94;;;24.04;42.20
34983;BME280;21187;50.976;13.720;2023-09-19T10:16:32;97906.28;;;24.36;41.30
34983;BME280;21187;50.976;13.720;2023-09-19T10:21:36;97900.50;;;24.87;40.61
34983;BME280;21187;50.976;13.720;2023-09-19T10:26:38;97896.69;;;25.25;40.66
34983;BME280;21187;50.976;13.720;2023-09-19T10:31:42;97900.31;;;25.35;39.93
34983;BME280;21187;50.976;13.720;2023-09-19T10:36:50;97916.22;;;25.63;39.61
34983;BME280;21187;50.976;13.720;2023-09-19T10:41:55;97906.22;;;25.65;38.83
34983;BME280;21187;50.976;13.720;2023-09-19T10:47:01;97899.91;;;25.65;38.57
34983;BME280;21187;50.976;13.720;2023-09-19T10:52:05;97903.19;;;25.82;38.60
34983;BME280;21187;50.976;13.720;2023-09-19T10:57:19;97907.31;;;25.77;38.73
34983;BME280;21187;50.976;13.720;2023-09-19T11:02:21;97911.69;;;25.37;38.58
34983;BME280;21187;50.976;13.720;2023-09-19T11:07:25;97918.31;;;25.08;38.82
34983;BME280;21187;50.976;13.720;2023-09-19T11:17:52;97914.94;;;25.14;36.97
34983;BME280;21187;50.976;13.720;2023-09-19T11:23:17;97905.03;;;25.03;34.76
34983;BME280;21187;50.976;13.720;2023-09-19T11:33:31;97916.09;;;24.94;34.18
34983;BME280;21187;50.976;13.720;2023-09-19T11:48:49;97913.41;;;25.13;33.51
34983;BME280;21187;50.976;13.720;2023-09-19T11:53:56;97910.69;;;24.90;33.90
34983;BME280;21187;50.976;13.720;2023-09-19T11:59:01;97912.97;;;24.83;33.70
34983;BME280;21187;50.976;13.720;2023-09-19T12:04:06;97908.31;;;24.80;34.28
34983;BME280;21187;50.976;13.720;2023-09-19T12:09:13;97911.06;;;24.80;33.78
34983;BME280;21187;50.976;13.720;2023-09-19T12:14:22;97906.69;;;24.91;33.42
34983;BME280;21187;50.976;13.720;2023-09-19T12:19:26;97912.25;;;25.01;33.83
34983;BME280;21187;50.976;13.720;2023-09-19T12:24:29;97908.56;;;25.26;33.62
34983;BME280;21187;50.976;13.720;2023-09-19T12:29:42;97898.81;;;25.21;33.92
34983;BME280;21187;50.976;13.720;2023-09-19T12:34:51;97905.78;;;25.26;34.34
34983;BME280;21187;50.976;13.720;2023-09-19T12:40:04;97898.09;;;25.30;34.76
34983;BME280;21187;50.976;13.720;2023-09-19T12:45:17;97896.00;;;25.44;35.10
34983;BME280;21187;50.976;13.720;2023-09-19T12:50:20;97903.47;;;25.74;35.09
34983;BME280;21187;50.976;13.720;2023-09-19T12:55:31;97901.41;;;26.06;34.83
34983;BME280;21187;50.976;13.720;2023-09-19T13:00:40;97895.06;;;26.24;34.22
34983;BME280;21187;50.976;13.720;2023-09-19T13:05:49;97894.59;;;26.26;34.28
34983;BME280;21187;50.976;13.720;2023-09-19T13:16:12;97905.31;;;25.68;33.40
34983;BME280;21187;50.976;13.720;2023-09-19T13:21:17;97898.38;;;25.64;33.48
34983;BME280;21187;50.976;13.720;2023-09-19T13:26:25;97905.63;;;25.80;32.92
34983;BME280;21187;50.976;13.720;2023-09-19T13:31:27;97905.34;;;25.87;33.14
34983;BME280;21187;50.976;13.720;2023-09-19T13:36:29;97903.81;;;25.86;33.00
34983;BME280;21187;50.976;13.720;2023-09-19T13:41:31;97906.09;;;25.69;32.61
34983;BME280;21187;50.976;13.720;2023-09-19T13:46:34;97892.97;;;25.60;32.59
34983;BME280;21187;50.976;13.720;2023-09-19T13:51:37;97899.13;;;25.64;31.75
34983;BME280;21187;50.976;13.720;2023-09-19T13:56:39;97892.66;;;25.58;31.57
34983;BME280;21187;50.976;13.720;2023-09-19T14:01:41;97904.25;;;25.75;31.56
34983;BME280;21187;50.976;13.720;2023-09-19T14:06:43;97897.91;;;25.65;31.10
34983;BME280;21187;50.976;13.720;2023-09-19T14:11:47;97903.63;;;25.71;30.94
34983;BME280;21187;50.976;13.720;2023-09-19T14:16:49;97893.38;;;26.08;30.88
34983;BME280;21187;50.976;13.720;2023-09-19T14:21:51;97893.97;;;26.03;30.21
34983;BME280;21187;50.976;13.720;2023-09-19T14:26:56;97890.56;;;25.90;30.16
34983;BME280;21187;50.976;13.720;2023-09-19T14:31:58;97898.53;;;25.79;29.88
34983;BME280;21187;50.976;13.720;2023-09-19T14:37:01;97894.84;;;25.72;30.04
34983;BME280;21187;50.976;13.720;2023-09-19T14:42:03;97890.50;;;25.62;30.17
34983;BME280;21187;50.976;13.720;2023-09-19T14:47:05;97875.56;;;25.69;29.73
34983;BME280;21187;50.976;13.720;2023-09-19T14:52:09;97878.50;;;25.65;29.78
34983;BME280;21187;50.976;13.720;2023-09-19T14:57:11;97886.75;;;25.37;29.51
34983;BME280;21187;50.976;13.720;2023-09-19T15:02:15;97883.91;;;25.28;29.90
34983;BME280;21187;50.976;13.720;2023-09-19T15:07:18;97881.81;;;25.41;30.61
34983;BME280;21187;50.976;13.720;2023-09-19T15:12:21;97877.19;;;25.38;30.10
34983;BME280;21187;50.976;13.720;2023-09-19T15:17:23;97881.72;;;25.23;30.44
34983;BME280;21187;50.976;13.720;2023-09-19T15:22:28;97881.66;;;25.04;30.16
34983;BME280;21187;50.976;13.720;2023-09-19T15:27:31;97889.41;;;24.87;30.46
34983;BME280;21187;50.976;13.720;2023-09-19T15:32:34;97879.38;;;24.81;30.76
34983;BME280;21187;50.976;13.720;2023-09-19T15:37:36;97882.44;;;24.73;30.66
34983;BME280;21187;50.976;13.720;2023-09-19T15:42:38;97881.66;;;24.73;31.24
34983;BME280;21187;50.976;13.720;2023-09-19T15:47:40;97878.06;;;24.63;31.19
34983;BME280;21187;50.976;13.720;2023-09-19T15:52:42;97882.59;;;24.57;31.23
34983;BME280;21187;50.976;13.720;2023-09-19T15:57:44;97888.03;;;24.38;30.95
34983;BME280;21187;50.976;13.720;2023-09-19T16:02:46;97879.66;;;24.29;31.37
34983;BME280;21187;50.976;13.720;2023-09-19T16:07:52;97881.44;;;24.23;30.93
34983;BME280;21187;50.976;13.720;2023-09-19T16:12:54;97874.63;;;24.15;30.99
34983;BME280;21187;50.976;13.720;2023-09-19T16:17:56;97874.88;;;24.07;30.41
34983;BME280;21187;50.976;13.720;2023-09-19T16:22:58;97888.19;;;24.00;30.64
34983;BME280;21187;50.976;13.720;2023-09-19T16:28:00;97888.94;;;23.87;30.46
34983;BME280;21187;50.976;13.720;2023-09-19T16:33:02;97895.63;;;23.77;30.60
34983;BME280;21187;50.976;13.720;2023-09-19T16:38:04;97894.75;;;23.67;30.67
34983;BME280;21187;50.976;13.720;2023-09-19T16:43:06;97892.13;;;23.51;30.35
34983;BME280;21187;50.976;13.720;2023-09-19T16:48:08;97897.31;;;23.36;30.38
34983;BME280;21187;50.976;13.720;2023-09-19T16:53:10;97914.34;;;23.21;30.34
34983;BME280;21187;50.976;13.720;2023-09-19T16:58:13;97907.59;;;23.09;30.48
34983;BME280;21187;50.976;13.720;2023-09-19T17:03:15;97907.66;;;22.93;30.60
34983;BME280;21187;50.976;13.720;2023-09-19T17:08:18;97904.44;;;22.82;30.72
34983;BME280;21187;50.976;13.720;2023-09-19T17:13:19;97922.34;;;22.77;30.93
34983;BME280;21187;50.976;13.720;2023-09-19T17:18:21;97931.25;;;22.68;31.08
34983;BME280;21187;50.976;13.720;2023-09-19T17:23:25;97919.94;;;22.50;31.22
34983;BME280;21187;50.976;13.720;2023-09-19T17:28:29;97932.19;;;22.32;31.38
34983;BME280;21187;50.976;13.720;2023-09-19T17:33:31;97936.38;;;22.24;31.54
34983;BME280;21187;50.976;13.720;2023-09-19T17:38:33;97949.28;;;22.27;31.53
34983;BME280;21187;50.976;13.720;2023-09-19T17:43:36;97942.72;;;22.21;31.66
34983;BME280;21187;50.976;13.720;2023-09-19T17:48:42;97943.00;;;22.10;31.94
34983;BME280;21187;50.976;13.720;2023-09-19T17:53:48;97944.84;;;22.00;32.14
34983;BME280;21187;50.976;13.720;2023-09-19T17:58:50;97948.13;;;21.95;32.26
34983;BME280;21187;50.976;13.720;2023-09-19T18:03:57;97958.63;;;21.84;32.48
34983;BME280;21187;50.976;13.720;2023-09-19T18:09:02;97968.09;;;21.83;32.69
34983;BME280;21187;50.976;13.720;2023-09-19T18:14:09;97968.97;;;21.80;32.61
34983;BME280;21187;50.976;13.720;2023-09-19T18:19:11;97981.03;;;21.69;32.92
34983;BME280;21187;50.976;13.720;2023-09-19T18:24:14;97994.63;;;21.60;33.22
34983;BME280;21187;50.976;13.720;2023-09-19T18:29:16;98006.50;;;21.57;33.34
34983;BME280;21187;50.976;13.720;2023-09-19T18:34:18;98002.13;;;21.39;33.74
34983;BME280;21187;50.976;13.720;2023-09-19T18:39:20;98010.34;;;21.23;34.20
34983;BME280;21187;50.976;13.720;2023-09-19T18:44:24;98007.88;;;21.08;34.83
34983;BME280;21187;50.976;13.720;2023-09-19T18:49:26;98014.88;;;20.93;35.34
34983;BME280;21187;50.976;13.720;2023-09-19T18:54:28;98024.41;;;20.88;35.63
34983;BME280;21187;50.976;13.720;2023-09-19T18:59:31;98016.44;;;20.94;35.59
34983;BME280;21187;50.976;13.720;2023-09-19T19:04:35;98029.00;;;20.95;35.64
34983;BME280;21187;50.976;13.720;2023-09-19T19:09:41;98027.44;;;20.94;35.67
34983;BME280;21187;50.976;13.720;2023-09-19T19:14:42;98034.28;;;20.86;35.84
34983;BME280;21187;50.976;13.720;2023-09-19T19:19:49;98024.63;;;20.77;36.32
34983;BME280;21187;50.976;13.720;2023-09-19T19:24:51;98033.31;;;20.76;36.36
34983;BME280;21187;50.976;13.720;2023-09-19T19:29:52;98040.09;;;20.68;36.49
34983;BME280;21187;50.976;13.720;2023-09-19T19:34:54;98025.69;;;20.60;36.65
34983;BME280;21187;50.976;13.720;2023-09-19T19:39:57;98025.28;;;20.38;37.15
34983;BME280;21187;50.976;13.720;2023-09-19T19:44:58;98034.78;;;20.33;37.40
34983;BME280;21187;50.976;13.720;2023-09-19T19:50:00;98020.09;;;20.20;38.00
34983;BME280;21187;50.976;13.720;2023-09-19T19:55:02;98026.66;;;20.02;38.46
34983;BME280;21187;50.976;13.720;2023-09-19T20:00:05;98029.03;;;20.00;38.45
34983;BME280;21187;50.976;13.720;2023-09-19T20:05:07;98025.94;;;19.98;38.53
34983;BME280;21187;50.976;13.720;2023-09-19T20:10:11;98012.75;;;19.86;38.94
34983;BME280;21187;50.976;13.720;2023-09-19T20:15:17;98022.19;;;19.85;39.09
34983;BME280;21187;50.976;13.720;2023-09-19T20:20:19;98019.88;;;19.83;39.18
34983;BME280;21187;50.976;13.720;2023-09-19T20:25:24;98015.94;;;19.84;39.14
34983;BME280;21187;50.976;13.720;2023-09-19T20:30:30;98023.28;;;19.91;38.81
34983;BME280;21187;50.976;13.720;2023-09-19T20:35:36;98013.38;;;19.97;38.91
34983;BME280;21187;50.976;13.720;2023-09-19T20:40:41;98023.50;;;20.04;38.79
34983;BME280;21187;50.976;13.720;2023-09-19T20:45:45;98032.16;;;20.02;38.88
34983;BME280;21187;50.976;13.720;2023-09-19T20:50:47;98026.66;;;20.02;38.86
34983;BME280;21187;50.976;13.720;2023-09-19T20:55:49;98015.28;;;20.00;38.83
34983;BME280;21187;50.976;13.720;2023-09-19T21:00:52;98022.81;;;19.96;39.11
34983;BME280;21187;50.976;13.720;2023-09-19T21:11:16;98015.28;;;19.73;39.69
34983;BME280;21187;50.976;13.720;2023-09-19T21:16:18;98015.34;;;19.69;39.90
34983;BME280;21187;50.976;13.720;2023-09-19T21:21:23;98011.03;;;19.68;40.07
34983;BME280;21187;50.976;13.720;2023-09-19T21:26:27;98012.59;;;19.69;40.03
34983;BME280;21187;50.976;13.720;2023-09-19T21:31:29;98012.22;;;19.67;40.18
34983;BME280;21187;50.976;13.720;2023-09-19T21:36:31;97998.06;;;19.69;40.01
34983;BME280;21187;50.976;13.720;2023-09-19T21:41:35;98002.06;;;19.64;40.43
34983;BME280;21187;50.976;13.720;2023-09-19T21:46:38;98006.06;;;19.59;40.55
34983;BME280;21187;50.976;13.720;2023-09-19T21:51:41;98016.16;;;19.66;40.58
34983;BME280;21187;50.976;13.720;2023-09-19T21:56:43;98003.22;;;19.67;40.65
34983;BME280;21187;50.976;13.720;2023-09-19T22:01:45;97996.59;;;19.64;40.81
34983;BME280;21187;50.976;13.720;2023-09-19T22:06:46;98000.50;;;19.63;40.90
34983;BME280;21187;50.976;13.720;2023-09-19T22:11:49;97994.38;;;19.52;41.55
34983;BME280;21187;50.976;13.720;2023-09-19T22:16:52;97990.56;;;19.45;41.49
34983;BME280;21187;50.976;13.720;2023-09-19T22:21:54;97994.13;;;19.42;41.98
34983;BME280;21187;50.976;13.720;2023-09-19T22:26:56;97985.06;;;19.45;41.84
34983;BME280;21187;50.976;13.720;2023-09-19T22:31:58;97978.75;;;19.49;41.77
34983;BME280;21187;50.976;13.720;2023-09-19T22:37:00;97977.91;;;19.52;42.00
34983;BME280;21187;50.976;13.720;2023-09-19T22:42:03;97975.97;;;19.52;42.23
34983;BME280;21187;50.976;13.720;2023-09-19T22:47:13;97965.38;;;19.51;42.00
34983;BME280;21187;50.976;13.720;2023-09-19T22:52:15;97978.84;;;19.41;42.68
34983;BME280;21187;50.976;13.720;2023-09-19T22:57:20;97986.69;;;19.43;42.69
34983;BME280;21187;50.976;13.720;2023-09-19T23:02:22;97992.25;;;19.36;43.00
34983;BME280;21187;50.976;13.720;2023-09-19T23:07:30;97992.25;;;19.36;43.23
34983;BME280;21187;50.976;13.720;2023-09-19T23:12:32;97998.09;;;19.41;42.97
34983;BME280;21187;50.976;13.720;2023-09-19T23:17:34;98002.34;;;19.42;42.99
34983;BME280;21187;50.976;13.720;2023-09-19T23:22:38;97987.13;;;19.38;43.11
34983;BME280;21187;50.976;13.720;2023-09-19T23:27:42;97999.81;;;19.28;43.35
34983;BME280;21187;50.976;13.720;2023-09-19T23:32:48;97997.59;;;19.19;43.90
34983;BME280;21187;50.976;13.720;2023-09-19T23:37:50;97998.38;;;19.16;44.10
34983;BME280;21187;50.976;13.720;2023-09-19T23:42:52;98005.84;;;19.16;44.21
34983;BME280;21187;50.976;13.720;2023-09-19T23:47:55;98004.69;;;19.17;44.04
34983;BME280;21187;50.976;13.720;2023-09-19T23:52:57;98016.84;;;19.16;44.06
34983;BME280;21187;50.976;13.720;2023-09-19T23:58:02;98011.34;;;19.16;44.18
